Check out our new PWSWeather beta!
PWSweather.com
Personal Weather Stations
Station Observations
KCAEXETE14
Park Place, Exeter, CA 93221

Park PlaceExeter, CA 93221

Lat: 36.283487, Lon: -119.152218

Elevation: 380

Station Type: Davis Vantage Vue

http://weather.manyjourneys.com/

Latest ConditionsUpdated 2:45:00 AM PST Wednesday, Feb 26, 2020
Currently Today's Max Today's Min Today's Average
Temperature 45.9°F7.7°C 51.2°F10.7°C 45.9°F7.7°C 47.3°F8.5°C
Dew Point 42.8°F6.0°C 45.6°F7.6°C 42.8°F6.0°C 43.9°F6.6°C
Winds Calm Calm Calm -Calm - - Calm Calm
Wind Gusts -- -- - -
Humidity 89% 90% 81% 88%
Pressure 30.30 in1026.1 mb 30.30 in1026.1 mb 30.29 in1025.7 mb -
Hour Temp Dew Point Humidity Winds Wind Gusts Pressure Precip Precip Rate Daily Precip Total
02:45 AM 45.9°F7.7°C 42.8°F6.0°C 89% Calm Calm -- 30.30 in1026.1 mb - 0.00 in0.0 mm 0.00 in0.0 mm
02:40 AM 46.2°F7.9°C 43.4°F6.3°C 90% Calm Calm -- 30.30 in1026.1 mb - 0.00 in0.0 mm 0.00 in0.0 mm
02:35 AM 46.4°F8.0°C 43.6°F6.4°C 90% Calm Calm -- 30.30 in1026.1 mb - 0.00 in0.0 mm 0.00 in0.0 mm
02:30 AM 46.5°F8.1°C 43.7°F6.5°C 90% Calm Calm -- 30.30 in1026.1 mb - 0.00 in0.0 mm 0.00 in0.0 mm
02:25 AM 46.7°F8.2°C 43.6°F6.4°C 89% Calm Calm -- 30.30 in1026.1 mb - 0.00 in0.0 mm 0.00 in0.0 mm
02:20 AM 46.9°F8.3°C 43.8°F6.6°C 89% Calm Calm -- 30.30 in1026.1 mb - 0.00 in0.0 mm 0.00 in0.0 mm
02:15 AM 47.1°F8.4°C 44.0°F6.7°C 89% Calm Calm -- 30.30 in1026.1 mb - 0.00 in0.0 mm 0.00 in0.0 mm
02:10 AM 47.2°F8.4°C 44.1°F6.7°C 89% Calm Calm -- 30.30 in1026.1 mb - 0.00 in0.0 mm 0.00 in0.0 mm
02:05 AM 47.1°F8.4°C 44.1°F6.7°C 89% Calm Calm -- 30.30 in1026.1 mb - 0.00 in0.0 mm 0.00 in0.0 mm
02:00 AM 47.0°F8.3°C 44.2°F6.8°C 90% Calm Calm -- 30.30 in1026.1 mb - 0.00 in0.0 mm 0.00 in0.0 mm
01:55 AM 46.8°F8.2°C 44.0°F6.7°C 90% Calm Calm -- 30.30 in1026.1 mb - 0.00 in0.0 mm 0.00 in0.0 mm
01:50 AM 46.5°F8.1°C 43.7°F6.5°C 90% Calm Calm -- 30.30 in1026.1 mb - 0.00 in0.0 mm 0.00 in0.0 mm
01:45 AM 46.5°F8.1°C 43.7°F6.5°C 90% Calm Calm -- 30.30 in1026.1 mb - 0.00 in0.0 mm 0.00 in0.0 mm
01:40 AM 46.5°F8.1°C 43.7°F6.5°C 90% Calm Calm -- 30.30 in1026.1 mb - 0.00 in0.0 mm 0.00 in0.0 mm
01:35 AM 46.5°F8.1°C 43.4°F6.3°C 89% Calm Calm -- 30.30 in1026.1 mb - 0.00 in0.0 mm 0.00 in0.0 mm
01:30 AM 46.7°F8.2°C 43.6°F6.4°C 89% Calm Calm -- 30.30 in1026.1 mb - 0.00 in0.0 mm 0.00 in0.0 mm
01:25 AM 46.8°F8.2°C 43.7°F6.5°C 89% Calm Calm -- 30.30 in1026.1 mb - 0.00 in0.0 mm 0.00 in0.0 mm
01:20 AM 46.9°F8.3°C 43.8°F6.6°C 89% Calm Calm -- 30.30 in1026.1 mb - 0.00 in0.0 mm 0.00 in0.0 mm
01:15 AM 46.8°F8.2°C 43.7°F6.5°C 89% Calm Calm -- 30.30 in1026.1 mb - 0.00 in0.0 mm 0.00 in0.0 mm
01:10 AM 46.8°F8.2°C 43.4°F6.3°C 88% Calm Calm -- 30.30 in1026.1 mb - 0.00 in0.0 mm 0.00 in0.0 mm
01:05 AM 46.9°F8.3°C 43.8°F6.6°C 89% Calm Calm -- 30.30 in1026.1 mb - 0.00 in0.0 mm 0.00 in0.0 mm
01:00 AM 46.8°F8.2°C 43.7°F6.5°C 89% Calm Calm -- 30.30 in1026.1 mb - 0.00 in0.0 mm 0.00 in0.0 mm
12:55 AM 46.8°F8.2°C 43.4°F6.3°C 88% Calm Calm -- 30.30 in1026.1 mb - 0.00 in0.0 mm 0.00 in0.0 mm
12:50 AM 46.9°F8.3°C 43.5°F6.4°C 88% Calm Calm -- 30.30 in1026.1 mb - 0.00 in0.0 mm 0.00 in0.0 mm
12:45 AM 47.2°F8.4°C 43.5°F6.4°C 87% Calm Calm -- 30.30 in1026.1 mb - 0.00 in0.0 mm 0.00 in0.0 mm
12:40 AM 47.3°F8.5°C 43.9°F6.6°C 88% Calm Calm -- 30.30 in1026.1 mb - 0.00 in0.0 mm 0.00 in0.0 mm
12:35 AM 47.3°F8.5°C 43.6°F6.4°C 87% Calm Calm -- 30.30 in1026.1 mb - 0.00 in0.0 mm 0.00 in0.0 mm
12:30 AM 47.6°F8.7°C 43.6°F6.4°C 86% Calm Calm -- 30.30 in1026.1 mb - 0.00 in0.0 mm 0.00 in0.0 mm
12:25 AM 48.0°F8.9°C 43.4°F6.3°C 84% Calm Calm -- 30.30 in1026.1 mb - 0.00 in0.0 mm 0.00 in0.0 mm
12:20 AM 48.8°F9.3°C 43.9°F6.6°C 83% Calm Calm -- 30.30 in1026.1 mb - 0.00 in0.0 mm 0.00 in0.0 mm
12:15 AM 49.7°F9.8°C 44.8°F7.1°C 83% Calm Calm -- 30.30 in1026.1 mb - 0.00 in0.0 mm 0.00 in0.0 mm
12:10 AM 50.4°F10.2°C 45.1°F7.3°C 82% Calm Calm -- 30.29 in1025.7 mb - 0.00 in0.0 mm 0.00 in0.0 mm
12:05 AM 50.8°F10.4°C 45.5°F7.5°C 82% Calm Calm -- 30.29 in1025.7 mb - 0.00 in0.0 mm 0.00 in0.0 mm
12:00 AM 51.2°F10.7°C 45.6°F7.6°C 81% Calm Calm -- 30.29 in1025.7 mb - 0.00 in0.0 mm 0.00 in0.0 mm